Time;durP1;ratioP1;P1;durP2;ratioP2;P2;SDS_P1;SDS_P2;PMS_P1;PMS_P2;Temp;Humidity;BMP_temperature;BMP_pressure;BME280_temperature;BME280_humidity;BME280_pressure;Samples;Min_cycle;Max_cycle;Signal;HPM_P1;HPM_P2
2021/03/26 00:02:10;;;;;;;5.28;1.98;;;;;;;7.54;50.21;101795.44;5071603;28;20057;-68
2021/03/26 00:04:37;;;;;;;6.30;2.40;;;;;;;7.54;50.38;101796.31;5081617;28;20040;-67
2021/03/26 00:07:05;;;;;;;1.90;1.25;;;;;;;7.49;50.30;101791.66;5080729;28;20037;-67
2021/03/26 00:09:35;;;;;;;3.75;1.30;;;;;;;7.56;49.56;101781.50;5083203;28;20070;-67
2021/03/26 00:12:06;;;;;;;2.28;1.23;;;;;;;7.61;49.37;101787.84;5083319;28;20036;-68
2021/03/26 00:14:35;;;;;;;1.73;1.10;;;;;;;7.54;49.69;101785.81;5084189;28;20037;-68
2021/03/26 00:17:02;;;;;;;5.40;1.30;;;;;;;7.48;49.71;101779.41;5071191;28;20070;-68
2021/03/26 00:19:29;;;;;;;1.25;0.88;;;;;;;7.44;49.99;101782.69;5073251;28;20037;-67
2021/03/26 00:21:57;;;;;;;1.85;1.20;;;;;;;7.39;50.14;101777.25;5082432;28;20074;-68
2021/03/26 00:24:24;;;;;;;5.65;1.70;;;;;;;7.35;50.24;101780.53;5086644;28;20079;-67
2021/03/26 00:26:51;;;;;;;1.55;1.13;;;;;;;7.33;50.43;101768.19;5071230;28;20131;-67
2021/03/26 00:29:18;;;;;;;2.33;1.15;;;;;;;7.30;50.29;101776.81;5078007;28;20047;-68
2021/03/26 00:31:47;;;;;;;2.92;1.40;;;;;;;7.29;50.33;101771.50;5075048;28;20053;-67
2021/03/26 00:34:14;;;;;;;3.92;2.05;;;;;;;7.33;50.13;101778.69;5077438;28;20043;-68
2021/03/26 00:36:42;;;;;;;2.75;1.10;;;;;;;7.35;49.97;101777.06;5070900;28;20045;-68
2021/03/26 00:39:09;;;;;;;2.70;1.10;;;;;;;7.43;49.42;101771.28;5078029;28;20063;-68
2021/03/26 00:41:37;;;;;;;2.58;1.10;;;;;;;7.47;49.51;101775.88;5071038;28;20048;-68
2021/03/26 00:44:05;;;;;;;2.85;1.65;;;;;;;7.48;49.53;101774.16;5070640;28;20069;-68
2021/03/26 00:46:33;;;;;;;3.33;1.20;;;;;;;7.51;49.63;101764.66;5089214;28;20548;-68
2021/03/26 00:49:01;;;;;;;2.83;1.30;;;;;;;7.53;49.92;101768.25;5073949;28;20386;-68
2021/03/26 00:51:28;;;;;;;5.15;2.42;;;;;;;7.53;50.38;101781.41;5084049;28;20496;-68
2021/03/26 00:53:55;;;;;;;4.63;2.30;;;;;;;7.54;50.75;101763.91;5071231;28;20037;-68
2021/03/26 00:56:22;;;;;;;3.85;1.52;;;;;;;7.62;51.12;101770.38;5074730;28;20036;-68
2021/03/26 00:58:49;;;;;;;4.32;1.88;;;;;;;7.66;51.48;101774.94;5090126;28;20500;-67
2021/03/26 01:01:16;;;;;;;3.53;1.90;;;;;;;7.67;51.96;101768.84;5089167;28;20036;-67
2021/03/26 01:03:43;;;;;;;4.72;1.90;;;;;;;7.70;51.91;101768.06;5091058;28;20050;-68
2021/03/26 01:06:12;;;;;;;5.38;2.30;;;;;;;7.72;51.98;101769.94;5089466;28;20123;-68
2021/03/26 01:08:39;;;;;;;5.43;3.05;;;;;;;7.67;52.38;101767.97;5077267;28;20631;-68
2021/03/26 01:11:11;;;;;;;3.35;1.77;;;;;;;7.64;52.29;101767.81;5077316;28;20037;-68
2021/03/26 01:13:39;;;;;;;4.75;2.22;;;;;;;7.56;53.03;101770.09;5072967;28;20055;-68
2021/03/26 01:16:07;;;;;;;4.03;2.00;;;;;;;7.56;52.61;101772.72;5074714;28;20109;-68
2021/03/26 01:18:37;;;;;;;7.03;3.17;;;;;;;7.57;52.25;101779.78;5089619;28;20047;-68
2021/03/26 01:21:06;;;;;;;7.00;3.40;;;;;;;7.56;52.08;101777.97;5088300;28;20044;-68
2021/03/26 01:23:34;;;;;;;7.32;2.22;;;;;;;7.57;52.35;101769.28;5088440;28;20407;-68
2021/03/26 01:26:02;;;;;;;9.10;3.90;;;;;;;7.60;52.72;101779.94;5083452;28;20045;-68
2021/03/26 01:28:30;;;;;;;2.65;1.65;;;;;;;7.59;53.03;101780.75;5078573;28;20040;-68
2021/03/26 01:30:58;;;;;;;4.32;2.72;;;;;;;7.61;52.94;101779.09;5089384;28;20038;-68
2021/03/26 01:33:26;;;;;;;4.07;2.30;;;;;;;7.61;52.55;101784.34;5077797;28;20044;-67
2021/03/26 01:35:53;;;;;;;4.72;1.40;;;;;;;7.60;52.64;101786.09;5077008;28;20135;-68
2021/03/26 01:38:21;;;;;;;4.22;1.65;;;;;;;7.59;53.04;101781.66;5087854;28;20047;-68
2021/03/26 01:40:52;;;;;;;2.53;1.42;;;;;;;7.59;53.48;101778.13;5075633;28;20028;-68
2021/03/26 01:43:22;;;;;;;6.55;3.03;;;;;;;7.63;53.32;101785.31;5049807;28;20044;-68
2021/03/26 01:45:50;;;;;;;5.45;2.97;;;;;;;7.67;53.17;101792.50;5058376;28;20044;-68
2021/03/26 01:48:23;;;;;;;5.15;2.58;;;;;;;7.73;53.23;101787.50;5080185;28;20040;-68
2021/03/26 01:50:51;;;;;;;6.25;3.03;;;;;;;7.74;53.03;101786.69;5089533;28;20048;-68
2021/03/26 01:53:18;;;;;;;7.80;3.45;;;;;;;7.80;52.92;101783.44;5084608;28;20036;-68
2021/03/26 01:55:47;;;;;;;5.70;3.00;;;;;;;7.83;53.16;101779.19;5086862;28;20531;-68
2021/03/26 01:58:17;;;;;;;3.92;2.13;;;;;;;7.84;53.55;101786.25;5071018;28;20076;-68
2021/03/26 02:00:48;;;;;;;3.78;1.92;;;;;;;7.89;53.52;101789.97;5074440;28;20044;-68
2021/03/26 02:03:20;;;;;;;5.55;3.17;;;;;;;7.89;54.06;101782.06;5089685;28;20043;-68
2021/03/26 02:05:48;;;;;;;6.28;3.00;;;;;;;7.85;54.32;101782.78;5089787;28;20036;-68
2021/03/26 02:08:15;;;;;;;3.72;1.70;;;;;;;7.82;54.59;101773.84;5086078;28;20041;-68
2021/03/26 02:10:44;;;;;;;2.75;1.75;;;;;;;7.84;54.76;101780.09;5071693;28;20047;-68
2021/03/26 02:13:22;;;;;;;4.50;1.42;;;;;;;7.83;54.70;101787.06;5086165;28;20048;-68
2021/03/26 02:15:50;;;;;;;3.33;1.60;;;;;;;7.80;54.67;101800.09;5089709;28;20042;-67
2021/03/26 02:18:20;;;;;;;3.05;1.60;;;;;;;7.79;54.56;101795.66;5088209;28;20044;-68
2021/03/26 02:20:53;;;;;;;3.60;1.65;;;;;;;7.83;53.99;101797.59;5077823;28;20412;-68
2021/03/26 02:23:23;;;;;;;3.15;1.60;;;;;;;7.88;54.16;101798.66;5073286;28;20044;-68
2021/03/26 02:25:51;;;;;;;6.93;4.15;;;;;;;7.94;54.07;101800.69;5078352;28;20051;-68
2021/03/26 02:28:18;;;;;;;6.20;3.60;;;;;;;7.94;54.32;101798.94;5086286;28;20499;-68
2021/03/26 02:30:48;;;;;;;9.38;4.38;;;;;;;7.95;54.37;101800.72;5089877;28;20519;-68
2021/03/26 02:33:16;;;;;;;4.85;3.20;;;;;;;7.96;54.45;101807.78;5085394;28;20059;-68
2021/03/26 02:35:45;;;;;;;4.18;1.85;;;;;;;8.00;54.28;101809.75;5073338;28;20040;-68
2021/03/26 02:38:18;;;;;;;2.78;1.58;;;;;;;8.01;54.09;101819.41;5073827;28;20033;-68
2021/03/26 02:40:49;;;;;;;2.13;1.58;;;;;;;8.00;54.31;101822.88;5086217;28;20071;-67
2021/03/26 02:43:24;;;;;;;2.97;1.90;;;;;;;7.99;54.25;101817.56;5092909;28;20094;-67
2021/03/26 02:45:59;;;;;;;4.88;2.50;;;;;;;8.02;54.38;101817.66;5093678;28;20165;-68
2021/03/26 02:48:38;;;;;;;2.05;1.30;;;;;;;8.02;54.26;101815.94;5092571;28;20036;-68
2021/03/26 02:51:11;;;;;;;2.33;1.27;;;;;;;8.04;53.90;101815.13;5088465;28;20536;-68
2021/03/26 02:53:51;;;;;;;4.45;1.60;;;;;;;8.05;53.91;101816.91;5092830;28;20047;-68
2021/03/26 02:56:24;;;;;;;2.22;1.30;;;;;;;7.98;54.02;101814.03;5074259;28;20123;-67
2021/03/26 02:58:57;;;;;;;3.30;1.50;;;;;;;7.94;53.94;101817.34;5078377;28;20059;-68
2021/03/26 03:01:31;;;;;;;3.08;1.42;;;;;;;7.90;54.69;101817.16;5091353;28;20648;-68
2021/03/26 03:04:03;;;;;;;3.47;2.00;;;;;;;7.85;54.75;101819.59;5077892;28;20124;-68
2021/03/26 03:06:36;;;;;;;5.97;2.40;;;;;;;7.84;54.77;101823.03;5090305;28;20044;-68
2021/03/26 03:09:07;;;;;;;5.57;2.58;;;;;;;7.82;54.80;101824.69;5086342;28;20115;-68
2021/03/26 03:11:39;;;;;;;7.15;3.75;;;;;;;7.80;55.08;101831.63;5080206;28;20037;-68
2021/03/26 03:14:11;;;;;;;5.90;2.55;;;;;;;7.81;55.30;101833.41;5088608;28;20518;-68
2021/03/26 03:16:47;;;;;;;5.57;2.50;;;;;;;7.82;54.69;101837.84;5073897;28;20039;-67
2021/03/26 03:19:23;;;;;;;6.40;2.63;;;;;;;7.85;55.17;101843.25;5073582;28;20040;-68
2021/03/26 03:21:55;;;;;;;4.88;2.10;;;;;;;7.88;55.13;101840.72;5072480;28;20170;-68
2021/03/26 03:24:27;;;;;;;3.50;2.78;;;;;;;7.95;55.04;101848.06;5073569;28;20067;-67
2021/03/26 03:27:04;;;;;;;4.55;3.17;;;;;;;7.97;55.39;101854.28;5080576;28;20432;-68
2021/03/26 03:29:40;;;;;;;3.63;2.28;;;;;;;7.99;55.31;101850.00;5090550;28;20090;-68
2021/03/26 03:32:15;;;;;;;5.72;2.00;;;;;;;8.02;55.43;101852.75;5076504;28;20041;-68
2021/03/26 03:34:43;;;;;;;;;;;;;;;8.02;55.52;101851.84;5072713;28;20481;-67
2021/03/26 03:37:18;;;;;;;3.90;2.38;;;;;;;8.01;55.86;101855.31;5073715;28;20015;-67
2021/03/26 03:39:48;;;;;;;;;;;;;;;8.00;55.98;101858.78;5085196;28;20127;-68
2021/03/26 03:42:21;;;;;;;5.80;3.10;;;;;;;8.06;55.83;101866.94;5083355;28;20003;-68
2021/03/26 03:44:56;;;;;;;3.73;2.50;;;;;;;8.13;55.55;101879.53;5090674;28;20036;-68
2021/03/26 03:47:31;;;;;;;4.50;2.17;;;;;;;8.16;55.60;101878.75;5076646;28;20041;-68
2021/03/26 03:50:06;;;;;;;6.70;2.38;;;;;;;8.21;55.02;101871.94;5071872;28;20123;-68
2021/03/26 03:52:36;;;;;;;4.40;1.55;;;;;;;8.27;55.35;101881.00;5081092;28;20895;-68
2021/03/26 03:55:12;;;;;;;3.05;1.88;;;;;;;8.34;55.34;101871.66;5089949;28;20032;-68
2021/03/26 03:57:45;;;;;;;5.82;2.08;;;;;;;8.41;55.14;101884.25;5073898;28;20523;-68
2021/03/26 04:00:18;;;;;;;4.00;2.03;;;;;;;8.50;54.86;101889.00;5070353;28;20461;-68
2021/03/26 04:02:51;;;;;;;2.67;2.05;;;;;;;8.53;54.96;101890.06;5072234;28;20040;-68
2021/03/26 04:05:26;;;;;;;3.53;1.90;;;;;;;8.55;55.17;101890.09;5072553;28;20109;-68
2021/03/26 04:08:00;;;;;;;2.47;1.58;;;;;;;8.57;54.94;101891.97;5089050;28;20548;-67
2021/03/26 04:10:27;;;;;;;;;;;;;;;8.59;54.81;101892.03;5087669;28;20052;-66
2021/03/26 04:13:06;;;;;;;6.03;1.60;;;;;;;8.67;53.98;101890.59;5072016;28;19920;-66
2021/03/26 04:15:37;;;;;;;4.03;2.55;;;;;;;8.73;53.81;101893.47;5076183;28;20040;-66
2021/03/26 04:18:10;;;;;;;3.63;1.75;;;;;;;8.78;53.52;101887.59;5080922;28;20124;-66
2021/03/26 04:20:42;;;;;;;6.65;2.90;;;;;;;8.83;53.33;101887.78;5089772;28;20051;-66
2021/03/26 04:23:11;;;;;;;7.05;2.85;;;;;;;8.95;52.75;101903.16;5089161;28;20040;-66
2021/03/26 04:25:44;;;;;;;4.00;1.73;;;;;;;8.97;52.51;101891.88;5091624;28;20058;-66
2021/03/26 04:28:17;;;;;;;7.38;2.72;;;;;;;8.99;52.37;101898.06;5083680;28;20037;-67
2021/03/26 04:30:53;;;;;;;2.08;1.80;;;;;;;8.99;52.71;101905.09;5071406;28;20036;-66
2021/03/26 04:33:20;;;;;;;3.65;1.80;;;;;;;8.96;53.02;101903.22;5072102;28;20123;-67
2021/03/26 04:35:49;;;;;;;4.35;2.15;;;;;;;9.01;53.02;101906.03;5072322;28;20029;-66
2021/03/26 04:38:23;;;;;;;3.78;1.80;;;;;;;9.07;52.77;101906.28;5070655;28;20119;-66
2021/03/26 04:40:52;;;;;;;;;;;;;;;9.17;52.95;101913.72;5071591;28;20045;-66
2021/03/26 04:43:28;;;;;;;2.78;1.42;;;;;;;9.31;52.72;101909.91;5075087;28;19991;-67
2021/03/26 04:45:59;;;;;;;2.20;1.30;;;;;;;9.49;52.31;101920.25;5071063;28;20504;-66
2021/03/26 04:48:35;;;;;;;4.97;2.05;;;;;;;9.53;51.27;101920.41;5070475;28;20615;-66
2021/03/26 04:51:10;;;;;;;3.42;1.90;;;;;;;9.55;51.67;101928.38;5071477;28;20051;-66
2021/03/26 04:53:42;;;;;;;8.90;6.20;;;;;;;9.74;52.02;101932.63;5085668;28;20088;-66
2021/03/26 04:56:13;;;;;;;7.70;4.35;;;;;;;9.89;52.44;101930.56;5088963;28;20044;-67
2021/03/26 04:58:49;;;;;;;4.95;2.42;;;;;;;10.07;53.00;101925.94;5091232;28;20043;-66
2021/03/26 05:01:19;;;;;;;6.28;2.90;;;;;;;10.16;53.11;101935.94;5085616;28;20036;-68
2021/03/26 05:03:50;;;;;;;2.25;1.83;;;;;;;10.14;53.09;101943.81;5070058;28;20052;-67
2021/03/26 05:06:24;;;;;;;6.35;3.40;;;;;;;10.19;51.72;101938.72;5079053;28;20032;-67
2021/03/26 05:08:56;;;;;;;5.28;2.75;;;;;;;10.13;49.55;101934.09;5070563;28;20098;-67
2021/03/26 05:11:26;;;;;;;5.65;3.53;;;;;;;10.08;49.52;101938.31;5070459;28;20563;-67
2021/03/26 05:14:00;;;;;;;4.80;2.50;;;;;;;10.01;49.01;101949.47;5070527;28;20455;-67
2021/03/26 05:16:33;;;;;;;6.35;3.75;;;;;;;9.84;49.07;101950.59;5074058;28;20123;-67
2021/03/26 05:19:07;;;;;;;3.10;2.23;;;;;;;9.75;48.61;101948.50;5090070;28;20040;-67
2021/03/26 05:21:40;;;;;;;5.07;1.80;;;;;;;9.62;48.63;101956.78;5086055;28;20039;-67
2021/03/26 05:24:16;;;;;;;2.93;1.57;;;;;;;9.52;48.50;101958.16;5086652;28;20603;-67
2021/03/26 05:26:43;;;;;;;5.05;2.42;;;;;;;9.45;48.39;101955.25;5090646;28;20269;-66
2021/03/26 05:29:11;;;;;;;3.75;2.10;;;;;;;9.42;48.46;101965.66;5090115;28;20047;-67
2021/03/26 05:31:47;;;;;;;5.97;2.92;;;;;;;9.40;47.56;101960.31;5072230;28;20066;-66
2021/03/26 05:34:22;;;;;;;3.05;1.27;;;;;;;9.40;47.48;101962.03;5081345;28;20085;-67
2021/03/26 05:37:03;;;;;;;6.97;1.55;;;;;;;9.40;47.35;101973.50;5087086;28;20127;-67
2021/03/26 05:39:34;;;;;;;2.88;1.40;;;;;;;9.37;47.53;101973.38;5070609;28;20040;-67
2021/03/26 05:42:28;;;;;;;4.93;2.17;;;;;;;9.39;47.56;101974.31;5070148;28;20127;-67
2021/03/26 05:45:13;;;;;;;11.43;5.30;;;;;;;9.46;47.85;101973.72;5068654;28;20401;-66
2021/03/26 05:47:58;;;;;;;10.77;5.63;;;;;;;9.57;47.71;101976.81;5082463;28;20064;-66
2021/03/26 05:50:38;;;;;;;7.47;3.28;;;;;;;9.94;47.81;101976.47;5064525;28;20025;-68
2021/03/26 05:53:20;;;;;;;4.20;1.83;;;;;;;10.47;48.31;101974.91;5052864;28;20120;-68
2021/03/26 05:55:55;;;;;;;21.13;8.82;;;;;;;10.92;47.89;101978.25;5054424;28;20051;-67
2021/03/26 05:58:33;;;;;;;36.20;16.40;;;;;;;10.98;47.20;101975.81;5062021;28;20044;-67
2021/03/26 06:01:33;;;;;;;34.47;15.00;;;;;;;10.90;47.19;101975.53;5070828;28;20123;-67
2021/03/26 06:04:33;;;;;;;22.67;9.90;;;;;;;11.29;46.50;101985.66;5080426;28;20045;-67
2021/03/26 06:07:29;;;;;;;6.72;2.75;;;;;;;11.31;45.68;101983.94;5090211;28;20089;-67
2021/03/26 06:10:27;;;;;;;2.53;1.85;;;;;;;11.65;45.10;101984.16;5048370;28;20040;-67
2021/03/26 06:13:29;;;;;;;4.70;2.17;;;;;;;12.01;45.11;101994.09;5079553;28;20089;-67
2021/03/26 06:16:23;;;;;;;5.28;2.30;;;;;;;12.34;44.27;101993.28;5063897;28;20048;-68
2021/03/26 06:19:50;;;;;;;3.33;1.63;;;;;;;12.54;42.64;101990.31;5073052;28;20044;-67
2021/03/26 06:22:58;;;;;;;4.90;2.50;;;;;;;12.18;43.05;101995.47;5086396;28;20040;-67
2021/03/26 06:26:13;;;;;;;5.85;3.00;;;;;;;11.72;42.85;101999.38;5075629;28;20028;-67
2021/03/26 06:28:47;;;;;;;8.20;2.70;;;;;;;11.38;44.06;102002.69;5030059;28;20060;-67
2021/03/26 06:31:43;;;;;;;4.28;2.00;;;;;;;11.19;44.67;102001.22;5074025;28;20042;-67
2021/03/26 06:34:39;;;;;;;4.30;2.45;;;;;;;11.05;45.15;101991.91;5091009;28;20469;-67
2021/03/26 06:37:42;;;;;;;2.25;1.50;;;;;;;10.99;43.61;102002.28;5090241;28;20393;-67
2021/03/26 06:40:24;;;;;;;8.32;3.40;;;;;;;10.96;44.76;102001.31;5085637;28;20043;-67
2021/03/26 06:43:02;;;;;;;6.63;4.05;;;;;;;10.93;45.44;102012.66;5079038;28;20040;-67
2021/03/26 06:45:55;;;;;;;5.43;3.13;;;;;;;10.97;45.32;102008.34;5093159;28;20405;-67
2021/03/26 06:48:39;;;;;;;6.53;2.55;;;;;;;10.98;45.33;102016.34;5092490;28;20037;-67
2021/03/26 06:51:21;;;;;;;10.77;4.30;;;;;;;11.05;45.57;102013.06;5091779;28;20436;-67
2021/03/26 06:53:59;;;;;;;6.22;3.50;;;;;;;11.19;44.96;102008.25;5090591;28;20546;-67
2021/03/26 06:57:06;;;;;;;4.60;2.28;;;;;;;11.37;44.79;102016.75;5071401;28;20584;-67
2021/03/26 06:59:57;;;;;;;2.70;1.92;;;;;;;11.47;44.25;102023.25;5072776;28;20098;-67
2021/03/26 07:03:10;;;;;;;5.60;3.38;;;;;;;11.68;44.83;102029.25;5075290;28;20029;-67
2021/03/26 07:06:06;;;;;;;3.85;1.73;;;;;;;11.88;43.39;102029.88;5088349;28;20089;-67
2021/03/26 07:08:54;;;;;;;3.65;3.30;;;;;;;12.58;43.51;102040.78;5042464;28;20040;-67
2021/03/26 07:11:41;;;;;;;1.75;1.25;;;;;;;13.62;42.51;102028.47;5087920;28;20036;-68
2021/03/26 07:14:21;;;;;;;3.15;2.00;;;;;;;14.13;41.79;102028.75;5089410;28;20129;-68
2021/03/26 07:17:17;;;;;;;2.83;1.90;;;;;;;14.36;44.29;102032.78;5091627;28;20131;-68
2021/03/26 07:20:11;;;;;;;3.33;2.17;;;;;;;14.08;46.92;102041.03;5086401;28;20050;-68
2021/03/26 07:23:09;;;;;;;6.32;2.50;;;;;;;13.69;47.53;102049.00;5086388;28;20040;-67
2021/03/26 07:25:47;;;;;;;7.38;2.80;;;;;;;13.73;47.88;102052.59;5073083;28;20043;-67
2021/03/26 07:28:31;;;;;;;4.95;2.28;;;;;;;14.52;47.46;102049.06;5085253;28;20100;-68
2021/03/26 07:31:15;;;;;;;8.07;2.10;;;;;;;14.98;46.91;102066.78;5092246;28;20085;-68
2021/03/26 07:33:48;;;;;;;6.53;3.58;;;;;;;14.68;46.91;102072.44;5091232;28;20496;-68
2021/03/26 07:36:38;;;;;;;4.53;2.17;;;;;;;14.03;47.09;102102.88;5091610;28;20065;-68
2021/03/26 07:39:27;;;;;;;2.97;1.92;;;;;;;13.22;49.28;102114.13;5082133;28;20043;-68
2021/03/26 07:42:11;;;;;;;3.80;2.38;;;;;;;12.61;51.58;102122.06;5082366;28;20062;-68
2021/03/26 07:45:20;;;;;;;3.80;2.45;;;;;;;11.92;54.46;102134.97;5090652;28;20177;-68
2021/03/26 07:48:28;;;;;;;4.65;2.85;;;;;;;11.61;56.14;102138.34;5062035;28;20048;-68
2021/03/26 07:50:58;;;;;;;6.82;4.32;;;;;;;11.44;56.08;102124.53;5025474;28;20048;-68
2021/03/26 07:53:51;;;;;;;4.40;2.67;;;;;;;11.41;57.08;102134.13;5090023;28;20131;-67
2021/03/26 07:56:42;;;;;;;4.35;2.65;;;;;;;11.55;56.06;102133.72;5089677;28;20050;-67
2021/03/26 07:59:37;;;;;;;6.55;2.85;;;;;;;11.76;56.07;102138.84;5083799;28;20040;-67
2021/03/26 08:02:17;;;;;;;;;;;;;;;12.05;55.18;102141.53;5084155;28;20036;-67
2021/03/26 08:04:50;;;;;;;5.05;4.00;;;;;;;12.40;54.25;102143.56;5092086;28;19927;-67
2021/03/26 08:07:52;;;;;;;5.70;3.85;;;;;;;12.82;53.99;102154.50;5080921;28;20135;-67
2021/03/26 08:10:29;;;;;;;6.22;3.60;;;;;;;13.08;53.23;102149.94;5074180;28;20055;-67
2021/03/26 08:13:23;;;;;;;4.10;1.42;;;;;;;13.22;52.33;102153.91;5087572;28;20040;-67
2021/03/26 08:16:06;;;;;;;3.97;1.67;;;;;;;13.14;51.40;102153.69;5076643;28;20167;-67
2021/03/26 08:18:49;;;;;;;4.35;2.78;;;;;;;13.15;50.34;102155.47;5072161;28;20812;-67
2021/03/26 08:21:22;;;;;;;3.83;1.85;;;;;;;13.25;49.56;102154.00;5083369;28;21085;-67
2021/03/26 08:24:06;;;;;;;5.60;2.90;;;;;;;13.41;48.90;102157.94;5071566;28;20476;-67
2021/03/26 08:26:47;;;;;;;4.88;3.08;;;;;;;13.60;48.37;102154.91;5074792;28;20493;-67
2021/03/26 08:29:24;;;;;;;5.18;2.42;;;;;;;13.83;47.68;102159.03;5070113;28;20058;-67
2021/03/26 08:32:12;;;;;;;8.35;5.40;;;;;;;14.08;47.19;102149.91;5070949;28;20040;-68
2021/03/26 08:35:15;;;;;;;14.48;5.65;;;;;;;14.38;46.55;102146.16;5082299;28;20044;-67
2021/03/26 08:37:55;;;;;;;4.70;2.58;;;;;;;14.62;46.09;102146.72;5040813;28;20040;-68
2021/03/26 08:40:24;;;;;;;7.70;3.10;;;;;;;14.78;46.16;102148.81;5082278;28;20078;-67
2021/03/26 08:42:55;;;;;;;5.38;2.90;;;;;;;14.92;45.33;102151.78;5090319;28;20040;-67
2021/03/26 08:45:29;;;;;;;3.67;2.13;;;;;;;15.13;45.13;102146.88;5090143;28;20435;-67
2021/03/26 08:48:08;;;;;;;5.25;1.80;;;;;;;15.37;44.80;102143.78;5089049;28;20036;-67
2021/03/26 08:50:47;;;;;;;4.85;2.15;;;;;;;15.97;45.00;102148.38;5079879;28;20038;-68
2021/03/26 08:53:35;;;;;;;6.70;2.80;;;;;;;16.59;44.23;102143.97;5089893;28;20043;-68
2021/03/26 08:56:26;;;;;;;3.92;1.80;;;;;;;16.76;42.98;102142.44;5086348;28;20048;-67
2021/03/26 08:59:19;;;;;;;5.45;2.35;;;;;;;16.89;42.26;102141.72;5090975;28;20610;-67
2021/03/26 09:02:11;;;;;;;6.93;2.55;;;;;;;17.15;42.40;102158.00;5046565;28;20037;-68
2021/03/26 09:05:19;;;;;;;7.28;2.67;;;;;;;17.32;42.25;102152.88;5074048;28;20044;-67
2021/03/26 09:08:19;;;;;;;5.80;3.08;;;;;;;17.49;42.06;102153.94;4973935;28;20050;-68
2021/03/26 09:11:27;;;;;;;12.93;5.82;;;;;;;17.53;41.66;102155.72;4971353;28;20715;-68
2021/03/26 09:14:23;;;;;;;5.05;2.42;;;;;;;17.08;41.88;102153.47;5070172;28;20051;-68
2021/03/26 09:16:56;;;;;;;5.50;2.03;;;;;;;17.52;42.20;102157.50;5057140;28;20405;-68
2021/03/26 09:19:33;;;;;;;2.30;1.42;;;;;;;17.99;41.54;102156.16;5070200;28;20492;-67
2021/03/26 09:22:09;;;;;;;3.58;1.38;;;;;;;18.26;40.83;102153.69;5090051;28;20036;-68
2021/03/26 09:25:02;;;;;;;5.45;2.45;;;;;;;18.54;39.86;102152.06;5090665;28;20500;-68
2021/03/26 09:27:35;;;;;;;4.25;1.38;;;;;;;18.64;39.85;102160.16;5090288;28;20047;-68
2021/03/26 09:30:20;;;;;;;5.15;2.25;;;;;;;18.45;39.43;102160.03;5090355;28;20055;-68
2021/03/26 09:32:52;;;;;;;8.65;4.05;;;;;;;18.30;39.62;102169.78;5090447;28;20093;-68
2021/03/26 09:35:24;;;;;;;7.60;3.28;;;;;;;18.37;39.44;102161.78;5078115;28;20059;-68
2021/03/26 09:37:55;;;;;;;3.25;2.17;;;;;;;17.98;38.52;102167.75;5071226;28;20119;-68
2021/03/26 09:40:36;;;;;;;6.47;2.33;;;;;;;17.11;38.46;102164.22;5084279;28;20297;-68
2021/03/26 09:43:13;;;;;;;4.88;2.58;;;;;;;16.93;37.83;102169.34;5083000;28;20044;-67
2021/03/26 09:45:45;;;;;;;2.28;1.40;;;;;;;16.78;37.35;102158.47;5090339;28;20500;-68
2021/03/26 09:48:34;;;;;;;1.52;1.08;;;;;;;16.56;36.28;102160.81;5089838;28;20044;-68
2021/03/26 09:51:08;;;;;;;3.95;1.60;;;;;;;16.68;36.38;102158.34;5089624;28;20051;-68
2021/03/26 09:53:38;;;;;;;3.45;1.60;;;;;;;16.85;36.64;102157.66;5085835;28;20122;-67
2021/03/26 09:56:16;;;;;;;3.42;1.33;;;;;;;17.19;36.63;102154.53;5068261;28;20044;-68
2021/03/26 09:58:50;;;;;;;2.63;1.02;;;;;;;17.56;36.25;102170.91;5069858;28;20076;-68
2021/03/26 10:01:22;;;;;;;1.15;0.80;;;;;;;17.90;35.78;102160.56;5069789;28;20036;-68
2021/03/26 10:03:56;;;;;;;1.67;0.90;;;;;;;18.20;35.39;102165.22;5070092;28;20132;-67
2021/03/26 10:06:38;;;;;;;3.97;1.50;;;;;;;18.48;34.95;102155.59;5069582;28;20040;-68
2021/03/26 10:09:23;;;;;;;5.40;2.17;;;;;;;18.19;33.83;102159.88;5070567;28;20051;-68
2021/03/26 10:12:00;;;;;;;3.20;1.30;;;;;;;17.51;34.34;102165.53;5080220;28;20516;-68
2021/03/26 10:14:31;;;;;;;1.23;0.75;;;;;;;17.47;34.63;102169.94;5082234;28;20067;-68
2021/03/26 10:17:21;;;;;;;4.05;1.05;;;;;;;17.43;34.02;102175.22;5089769;28;20044;-69
2021/03/26 10:19:55;;;;;;;2.25;1.30;;;;;;;16.99;34.34;102177.41;5078156;28;20036;-68
2021/03/26 10:22:25;;;;;;;3.63;1.10;;;;;;;16.93;34.96;102172.00;5077066;28;20040;-68
2021/03/26 10:24:59;;;;;;;3.45;0.80;;;;;;;17.45;35.35;102178.81;5084163;28;20520;-68
2021/03/26 10:27:32;;;;;;;4.47;1.90;;;;;;;17.53;35.35;102177.09;5069316;28;20048;-67
2021/03/26 10:30:04;;;;;;;1.75;1.15;;;;;;;17.77;35.08;102171.13;5074885;28;20040;-67
2021/03/26 10:32:35;;;;;;;3.35;0.95;;;;;;;17.46;34.79;102172.56;5078230;28;20101;-67
2021/03/26 10:35:12;;;;;;;3.13;0.88;;;;;;;17.37;34.81;102177.84;5071265;28;20503;-67
2021/03/26 10:37:45;;;;;;;2.00;0.95;;;;;;;17.50;35.41;102182.41;5069681;28;20089;-67
2021/03/26 10:40:21;;;;;;;2.03;0.70;;;;;;;17.92;35.59;102188.19;5070659;28;20459;-67
2021/03/26 10:42:57;;;;;;;4.78;2.17;;;;;;;17.91;34.71;102180.16;5081213;28;20055;-67
2021/03/26 10:45:33;;;;;;;2.05;0.73;;;;;;;17.46;35.00;102183.25;5089511;28;20044;-67
2021/03/26 10:48:06;;;;;;;2.95;0.60;;;;;;;17.70;35.37;102188.00;5087932;28;20040;-67
2021/03/26 10:50:56;;;;;;;2.35;1.08;;;;;;;17.59;34.48;102182.50;5095401;28;20488;-67
2021/03/26 10:53:28;;;;;;;1.55;0.80;;;;;;;17.24;34.61;102174.16;5079599;28;20047;-67
2021/03/26 10:56:01;;;;;;;2.58;0.68;;;;;;;17.31;34.71;102169.78;5087219;28;20084;-67
2021/03/26 10:58:35;;;;;;;1.00;0.80;;;;;;;16.94;34.63;102174.66;5090476;28;20127;-67
2021/03/26 11:01:08;;;;;;;2.05;0.68;;;;;;;17.04;34.58;102175.69;5089281;28;20396;-67
2021/03/26 11:03:43;;;;;;;1.27;0.60;;;;;;;17.35;34.00;102166.25;5093447;28;20036;-67
2021/03/26 11:06:18;;;;;;;3.95;1.13;;;;;;;17.29;33.95;102163.50;5082758;28;20036;-67
2021/03/26 11:08:51;;;;;;;2.22;1.15;;;;;;;17.08;33.99;102162.38;5085257;28;20157;-67
2021/03/26 11:11:37;;;;;;;2.78;0.80;;;;;;;17.32;34.53;102167.13;5072396;28;20481;-67
2021/03/26 11:14:32;;;;;;;1.95;0.85;;;;;;;17.79;34.01;102164.00;5074518;28;20055;-67
2021/03/26 11:17:19;;;;;;;;;;;;;;;18.22;33.14;102166.16;5074538;28;20043;-67
2021/03/26 11:20:13;;;;;;;4.18;1.52;;;;;;;17.85;33.26;102167.63;5073907;28;20610;-67
2021/03/26 11:22:53;;;;;;;3.60;1.38;;;;;;;17.45;34.42;102169.03;5078693;28;20049;-67
2021/03/26 11:25:24;;;;;;;2.00;0.80;;;;;;;16.97;34.74;102163.16;5075538;28;20059;-67
2021/03/26 11:27:55;;;;;;;4.10;1.30;;;;;;;16.84;35.50;102163.88;5092911;28;20112;-67
2021/03/26 11:30:39;;;;;;;1.90;0.80;;;;;;;17.52;35.19;102160.16;5090804;28;20051;-67
2021/03/26 11:33:24;;;;;;;3.53;0.80;;;;;;;18.03;34.60;102166.00;5092311;28;20036;-67
2021/03/26 11:35:57;;;;;;;0.95;0.73;;;;;;;18.24;34.29;102160.81;5087041;28;20622;-68
2021/03/26 11:38:27;;;;;;;5.55;2.65;;;;;;;18.49;33.27;102151.16;5081490;28;20040;-67
2021/03/26 11:41:05;;;;;;;3.30;1.20;;;;;;;17.96;32.88;102151.69;5097091;28;20050;-67
2021/03/26 11:43:40;;;;;;;2.35;1.00;;;;;;;18.00;32.06;102150.81;5084388;28;20047;-67
2021/03/26 11:46:11;;;;;;;19.17;11.23;;;;;;;18.27;32.72;102145.69;5071763;28;20041;-67
2021/03/26 11:48:48;;;;;;;7.30;4.05;;;;;;;18.56;32.31;102145.88;5073110;28;20041;-67
2021/03/26 11:51:32;;;;;;;11.57;6.25;;;;;;;18.90;31.86;102151.38;5071515;28;20059;-67
2021/03/26 11:54:08;;;;;;;8.00;3.97;;;;;;;19.00;31.76;102138.03;5077637;28;20047;-67
2021/03/26 11:57:03;;;;;;;2.08;0.85;;;;;;;19.17;31.95;102140.72;5080150;28;20043;-67
2021/03/26 12:00:06;;;;;;;2.70;1.30;;;;;;;19.40;32.03;102132.75;5089878;28;20032;-67
2021/03/26 12:02:43;;;;;;;3.53;1.00;;;;;;;19.42;31.85;102118.50;5088205;28;20174;-66
2021/03/26 12:05:19;;;;;;;2.72;1.17;;;;;;;19.50;31.89;102114.03;5086215;28;20703;-68
2021/03/26 12:07:57;;;;;;;1.77;1.10;;;;;;;19.60;32.03;102119.41;5079280;28;20511;-67
2021/03/26 12:10:31;;;;;;;2.38;1.00;;;;;;;19.69;31.79;102120.28;5085398;28;20695;-67
2021/03/26 12:13:08;;;;;;;4.32;1.42;;;;;;;19.98;31.46;102114.91;5088935;28;20036;-67
2021/03/26 12:15:40;;;;;;;3.53;1.20;;;;;;;19.56;31.76;102112.28;5075059;28;20622;-67
2021/03/26 12:18:17;;;;;;;3.58;1.00;;;;;;;19.37;31.92;102105.97;5075877;28;21471;-67